createdAt,value
2022-12-01T00:01:10.689Z,56.03
2022-12-01T00:03:38.115Z,66.00
2022-12-01T00:06:09.565Z,57.28
2022-12-01T00:08:36.302Z,63.50
2022-12-01T00:11:09.260Z,62.63
2022-12-01T00:13:36.929Z,58.88
2022-12-01T00:16:15.088Z,60.72
2022-12-01T00:18:42.094Z,56.10
2022-12-01T00:21:16.880Z,57.95
2022-12-01T00:23:44.744Z,58.58
2022-12-01T00:26:11.333Z,62.90
2022-12-01T00:28:37.995Z,67.43
2022-12-01T00:31:09.483Z,59.08
2022-12-01T00:33:36.193Z,56.50
2022-12-01T00:36:03.885Z,57.75
2022-12-01T00:38:31.587Z,50.53
2022-12-01T00:40:58.551Z,59.78
2022-12-01T00:43:25.251Z,54.60
2022-12-01T00:45:52.439Z,51.75
2022-12-01T00:48:20.942Z,52.55
2022-12-01T00:50:48.009Z,61.22
2022-12-01T00:53:15.211Z,64.45
2022-12-01T00:55:42.008Z,69.47
2022-12-01T01:00:38.753Z,52.08
2022-12-01T01:03:06.824Z,60.80
2022-12-01T01:05:38.067Z,57.42
2022-12-01T01:08:09.528Z,56.63
2022-12-01T01:10:40.670Z,55.17
2022-12-01T01:13:07.750Z,51.92
2022-12-01T01:15:34.949Z,53.75
2022-12-01T01:18:02.402Z,56.13
2022-12-01T01:20:29.351Z,61.05
2022-12-01T01:22:56.114Z,64.65
2022-12-01T01:25:23.501Z,60.28
2022-12-01T01:27:50.809Z,57.13
2022-12-01T01:30:18.463Z,61.00
2022-12-01T01:32:45.098Z,59.72
2022-12-01T01:35:12.032Z,61.00
2022-12-01T01:37:39.612Z,63.20
2022-12-01T01:42:34.364Z,59.83
2022-12-01T01:45:01.043Z,68.45
2022-12-01T01:47:33.448Z,67.45
2022-12-01T01:50:09.211Z,65.18
2022-12-01T01:52:38.932Z,69.88
2022-12-01T01:55:06.275Z,63.47
2022-12-01T01:57:34.352Z,62.80
2022-12-01T02:00:14.218Z,57.75
2022-12-01T02:02:45.469Z,58.97
2022-12-01T02:05:17.274Z,54.10
2022-12-01T02:07:45.570Z,55.00
2022-12-01T02:10:14.863Z,53.70
2022-12-01T02:13:00.030Z,53.20
2022-12-01T02:16:05.613Z,49.65
2022-12-01T02:19:04.474Z,59.30
2022-12-01T02:21:55.161Z,49.40
2022-12-01T02:24:59.014Z,49.67
2022-12-01T02:27:36.830Z,57.25
2022-12-01T02:30:19.526Z,50.80
2022-12-01T02:33:00.096Z,45.15
2022-12-01T02:35:47.391Z,50.45
2022-12-01T02:38:20.163Z,57.15
2022-12-01T02:40:54.333Z,51.28
2022-12-01T02:43:33.819Z,56.47
2022-12-01T02:46:18.348Z,47.75
2022-12-01T02:48:51.564Z,45.50
2022-12-01T02:51:30.633Z,55.60
2022-12-01T02:54:00.202Z,50.30
2022-12-01T02:56:27.285Z,55.47
2022-12-01T02:58:53.881Z,52.20
2022-12-01T03:01:32.880Z,56.35
2022-12-01T03:04:12.957Z,54.10
2022-12-01T03:06:45.920Z,55.08
2022-12-01T03:12:19.462Z,51.95
2022-12-01T03:15:00.008Z,50.65
2022-12-01T03:17:35.313Z,57.28
2022-12-01T03:20:19.532Z,59.13
2022-12-01T03:23:00.695Z,58.65
2022-12-01T03:25:29.544Z,61.72
2022-12-01T03:28:20.643Z,54.95
2022-12-01T03:30:46.699Z,60.50
2022-12-01T03:33:21.624Z,57.17
2022-12-01T03:36:02.094Z,53.28
2022-12-01T03:38:30.442Z,54.55
2022-12-01T03:41:02.708Z,52.85
2022-12-01T03:43:33.905Z,55.08
2022-12-01T03:46:00.666Z,52.63
2022-12-01T03:48:28.347Z,47.97
2022-12-01T03:51:16.215Z,54.35
2022-12-01T03:53:58.178Z,52.65
2022-12-01T03:56:30.750Z,52.03
2022-12-01T03:59:01.351Z,50.13
2022-12-01T04:01:32.865Z,59.88
2022-12-01T04:04:09.083Z,52.08
2022-12-01T04:06:36.294Z,62.80
2022-12-01T04:09:03.940Z,54.20
2022-12-01T04:11:49.805Z,54.90
2022-12-01T04:14:16.457Z,57.38
2022-12-01T04:16:43.217Z,53.15
2022-12-01T04:19:12.114Z,51.83
2022-12-01T04:21:38.818Z,50.50
2022-12-01T04:24:05.626Z,49.13
2022-12-01T04:26:36.105Z,48.50
2022-12-01T04:29:09.271Z,51.55
2022-12-01T04:31:36.386Z,56.65
2022-12-01T04:34:03.969Z,49.72
2022-12-01T04:36:32.364Z,52.10
2022-12-01T04:38:59.332Z,53.95
2022-12-01T04:41:26.314Z,53.45
2022-12-01T04:43:57.522Z,49.65
2022-12-01T04:46:25.073Z,52.40
2022-12-01T04:48:52.698Z,53.97
2022-12-01T04:51:19.619Z,51.95
2022-12-01T04:53:46.259Z,52.55
2022-12-01T04:56:12.986Z,56.95
2022-12-01T04:58:39.758Z,57.42
2022-12-01T05:01:09.033Z,51.63
2022-12-01T05:03:49.607Z,45.53
2022-12-01T05:06:19.336Z,50.05
2022-12-01T05:08:46.348Z,45.85
2022-12-01T05:11:14.592Z,49.47
2022-12-01T05:13:43.539Z,45.40
2022-12-01T05:16:22.613Z,49.95
2022-12-01T05:19:13.819Z,45.72
2022-12-01T05:21:42.212Z,50.40
2022-12-01T05:24:09.520Z,45.45
2022-12-01T05:26:36.284Z,42.42
2022-12-01T05:29:03.477Z,47.85
2022-12-01T05:31:31.226Z,43.95
2022-12-01T05:33:57.917Z,43.88
2022-12-01T05:36:24.778Z,43.45
2022-12-01T05:41:18.025Z,45.58
2022-12-01T05:43:44.828Z,47.13
2022-12-01T05:46:11.533Z,49.10
2022-12-01T05:48:38.213Z,51.83
2022-12-01T05:51:12.794Z,54.22
2022-12-01T05:53:39.867Z,48.28
2022-12-01T05:56:07.938Z,48.85
2022-12-01T05:58:35.333Z,49.80
2022-12-01T06:01:05.288Z,49.63
2022-12-01T06:03:32.129Z,46.17
2022-12-01T06:06:01.883Z,48.70
2022-12-01T06:08:28.680Z,49.83
2022-12-01T06:10:56.052Z,47.08
2022-12-01T06:13:23.599Z,48.55
2022-12-01T06:15:59.935Z,45.50
2022-12-01T06:18:27.551Z,68.93
2022-12-01T06:20:54.446Z,49.72
2022-12-01T06:23:24.311Z,51.88
2022-12-01T06:25:54.366Z,51.78
2022-12-01T06:28:23.189Z,58.80
2022-12-01T06:30:51.185Z,41.42
2022-12-01T06:33:18.139Z,39.35
2022-12-01T06:35:46.418Z,43.08
2022-12-01T06:38:13.043Z,43.63
2022-12-01T06:40:39.791Z,42.22
2022-12-01T06:43:06.972Z,44.88
2022-12-01T06:45:33.705Z,46.75
2022-12-01T06:48:00.421Z,47.47
2022-12-01T06:50:27.126Z,48.22
2022-12-01T06:52:54.988Z,44.05
2022-12-01T06:55:21.858Z,48.88
2022-12-01T06:57:48.757Z,45.63
2022-12-01T07:00:16.551Z,49.67
2022-12-01T07:02:43.753Z,46.53
2022-12-01T07:07:39.183Z,46.83
2022-12-01T07:10:06.890Z,48.22
2022-12-01T07:12:33.962Z,51.65
2022-12-01T07:15:02.220Z,46.33
2022-12-01T07:17:29.821Z,53.70
2022-12-01T07:19:56.768Z,54.03
2022-12-01T07:22:29.523Z,46.58
2022-12-01T07:24:59.022Z,42.60
2022-12-01T07:27:25.660Z,46.17
2022-12-01T07:29:52.321Z,48.47
2022-12-01T07:32:18.932Z,46.22
2022-12-01T07:34:45.869Z,50.40
2022-12-01T07:37:17.008Z,42.55
2022-12-01T07:39:43.819Z,47.08
2022-12-01T07:42:10.434Z,43.75
2022-12-01T07:44:37.068Z,43.95
2022-12-01T07:47:03.799Z,44.00
2022-12-01T07:49:30.446Z,45.50
2022-12-01T07:51:57.345Z,44.22
2022-12-01T07:56:52.178Z,39.10
2022-12-01T07:59:18.719Z,47.08
2022-12-01T08:01:46.348Z,50.53
2022-12-01T08:04:13.276Z,46.20
2022-12-01T08:06:39.936Z,43.13
2022-12-01T08:09:06.681Z,46.47
2022-12-01T08:11:33.894Z,46.15
2022-12-01T08:14:00.594Z,48.97
2022-12-01T08:16:27.413Z,47.20
2022-12-01T08:18:54.424Z,45.65
2022-12-01T08:21:23.026Z,44.88
2022-12-01T08:23:54.645Z,43.17
2022-12-01T08:26:22.333Z,45.10
2022-12-01T08:28:49.809Z,49.88
2022-12-01T08:31:26.472Z,55.13
2022-12-01T08:33:54.168Z,43.55
2022-12-01T08:36:22.076Z,38.17
2022-12-01T08:38:51.944Z,45.75
2022-12-01T08:41:18.862Z,44.65
2022-12-01T08:48:58.493Z,37.25
2022-12-01T08:51:26.080Z,41.15
2022-12-01T08:53:53.263Z,43.22
2022-12-01T08:56:24.318Z,48.72
2022-12-01T08:58:51.774Z,41.65
2022-12-01T09:01:19.180Z,43.17
2022-12-01T09:03:46.577Z,41.90
2022-12-01T09:06:21.917Z,43.15
2022-12-01T09:08:48.976Z,39.03
2022-12-01T09:11:18.355Z,38.42
2022-12-01T09:13:51.418Z,44.88
2022-12-01T09:16:21.335Z,45.33
2022-12-01T09:18:48.594Z,48.33
2022-12-01T09:21:24.271Z,51.97
2022-12-01T09:23:51.473Z,48.75
2022-12-01T09:26:19.917Z,48.88
2022-12-01T09:28:48.482Z,45.28
2022-12-01T09:31:17.076Z,45.50
2022-12-01T09:33:44.652Z,36.70
2022-12-01T09:36:11.363Z,42.33
2022-12-01T09:41:09.199Z,33.15
2022-12-01T09:43:45.752Z,32.42
2022-12-01T09:46:18.618Z,42.65
2022-12-01T09:48:47.252Z,38.13
2022-12-01T09:51:15.786Z,43.17
2022-12-01T09:53:44.485Z,33.47
2022-12-01T09:56:22.227Z,33.85
2022-12-01T09:58:59.588Z,36.97
2022-12-01T10:01:37.357Z,36.47
2022-12-01T10:04:17.463Z,38.75
2022-12-01T10:06:56.026Z,38.33
2022-12-01T10:09:52.100Z,39.10
2022-12-01T10:12:23.833Z,37.08
2022-12-01T10:14:50.902Z,39.90
2022-12-01T10:17:51.729Z,37.55
2022-12-01T10:20:48.978Z,38.78
2022-12-01T10:23:33.891Z,40.08
2022-12-01T10:29:05.716Z,37.35
2022-12-01T10:31:38.665Z,36.05
2022-12-01T10:34:16.428Z,34.65
2022-12-01T10:36:44.828Z,41.22
2022-12-01T10:39:26.827Z,43.72
2022-12-01T10:41:59.944Z,32.33
2022-12-01T10:44:29.243Z,38.75
2022-12-01T10:46:56.685Z,45.38
2022-12-01T10:49:41.241Z,36.15
2022-12-01T10:52:39.952Z,37.90
2022-12-01T10:55:28.311Z,45.33
2022-12-01T10:57:57.879Z,36.63
2022-12-01T11:03:23.273Z,41.05
2022-12-01T11:05:53.852Z,39.40
2022-12-01T11:08:24.056Z,38.15
2022-12-01T11:10:51.114Z,49.05
2022-12-01T11:13:29.544Z,46.17
2022-12-01T11:16:04.671Z,46.20
2022-12-01T11:18:38.644Z,37.65
2022-12-01T11:21:05.481Z,47.33
2022-12-01T11:26:07.804Z,38.75
2022-12-01T11:31:07.840Z,42.92
2022-12-01T11:36:20.118Z,46.63
2022-12-01T11:38:49.252Z,36.65
2022-12-01T11:41:31.488Z,39.65
2022-12-01T11:44:02.083Z,38.90
2022-12-01T11:46:33.936Z,38.97
2022-12-01T11:49:01.476Z,44.25
2022-12-01T11:51:37.457Z,36.90
2022-12-01T11:54:13.622Z,35.58
2022-12-01T11:56:41.631Z,33.00
2022-12-01T11:59:14.454Z,37.25
2022-12-01T12:01:58.391Z,33.42
2022-12-01T12:04:43.768Z,37.70
2022-12-01T12:07:26.294Z,34.00
2022-12-01T12:10:18.040Z,35.90
2022-12-01T12:13:11.267Z,36.72
2022-12-01T12:15:56.211Z,37.15
2022-12-01T12:18:45.364Z,36.70
2022-12-01T12:21:27.389Z,33.80
2022-12-01T12:24:36.017Z,41.97
2022-12-01T12:27:23.996Z,36.15
2022-12-01T12:30:05.950Z,38.80
2022-12-01T12:32:53.881Z,35.10
2022-12-01T12:35:35.442Z,35.00
2022-12-01T12:38:22.490Z,36.78
2022-12-01T12:41:14.275Z,36.28
2022-12-01T12:43:49.984Z,33.90
2022-12-01T12:46:45.620Z,35.05
2022-12-01T12:49:21.344Z,34.00
2022-12-01T12:51:55.287Z,37.78
2022-12-01T12:54:31.774Z,37.22
2022-12-01T12:57:04.043Z,36.03
2022-12-01T12:59:48.861Z,37.38
2022-12-01T13:02:22.698Z,37.13
2022-12-01T13:04:59.592Z,39.95
2022-12-01T13:07:36.389Z,37.38
2022-12-01T13:10:11.284Z,33.97
2022-12-01T13:12:41.612Z,39.42
2022-12-01T13:15:19.831Z,37.08
2022-12-01T13:17:52.560Z,36.97
2022-12-01T13:22:49.048Z,29.83
2022-12-01T13:25:32.742Z,36.13
2022-12-01T13:28:01.881Z,36.47
2022-12-01T13:30:28.750Z,34.20
2022-12-01T13:33:05.549Z,41.47
2022-12-01T13:35:34.997Z,32.90
2022-12-01T13:38:20.396Z,34.47
2022-12-01T13:40:47.773Z,37.20
2022-12-01T13:43:22.622Z,38.13
2022-12-01T13:45:50.576Z,39.95
2022-12-01T13:48:36.788Z,41.20
2022-12-01T13:51:04.902Z,39.33
2022-12-01T13:53:32.594Z,42.45
2022-12-01T13:56:17.708Z,44.30
2022-12-01T13:58:44.390Z,35.88
2022-12-01T14:01:21.083Z,38.58
2022-12-01T14:04:03.836Z,41.50
2022-12-01T14:06:51.497Z,39.90
2022-12-01T14:09:27.480Z,39.63
2022-12-01T14:12:00.607Z,34.28
2022-12-01T14:14:34.800Z,38.60
2022-12-01T14:17:03.281Z,40.67
2022-12-01T14:19:52.076Z,36.35
2022-12-01T14:22:40.707Z,38.00
2022-12-01T14:25:30.732Z,41.80
2022-12-01T14:28:01.049Z,36.30
2022-12-01T14:30:45.144Z,41.13
2022-12-01T14:33:45.083Z,35.28
2022-12-01T14:36:23.739Z,44.80
2022-12-01T14:38:59.859Z,49.30
2022-12-01T14:41:34.249Z,50.00
2022-12-01T14:44:35.679Z,51.40
2022-12-01T14:47:25.785Z,46.92
2022-12-01T14:50:03.130Z,44.97
2022-12-01T14:52:36.734Z,47.22
2022-12-01T14:55:07.945Z,40.03
2022-12-01T14:57:39.802Z,39.30
2022-12-01T15:00:14.895Z,46.72
2022-12-01T15:02:43.757Z,41.85
2022-12-01T15:05:19.978Z,46.08
2022-12-01T15:07:49.940Z,40.03
2022-12-01T15:10:26.240Z,49.17
2022-12-01T15:12:54.211Z,42.67
2022-12-01T15:15:26.287Z,51.75
2022-12-01T15:18:01.745Z,47.65
2022-12-01T15:20:28.489Z,43.70
2022-12-01T15:22:56.304Z,47.67
2022-12-01T15:25:25.468Z,49.28
2022-12-01T15:28:18.197Z,51.20
2022-12-01T15:30:51.775Z,52.63
2022-12-01T15:33:36.997Z,56.10
2022-12-01T15:36:05.781Z,43.58
2022-12-01T15:38:35.807Z,54.50
2022-12-01T15:41:28.378Z,52.67
2022-12-01T15:44:00.711Z,52.22
2022-12-01T15:46:32.722Z,48.70
2022-12-01T15:49:17.108Z,56.58
2022-12-01T15:51:44.697Z,51.75
2022-12-01T15:54:21.454Z,54.88
2022-12-01T15:56:53.203Z,59.08
2022-12-01T15:59:39.213Z,55.58
2022-12-01T16:02:28.050Z,55.17
2022-12-01T16:05:13.168Z,48.85
2022-12-01T16:10:34.364Z,54.88
2022-12-01T16:13:59.664Z,66.90
2022-12-01T16:16:42.859Z,56.58
2022-12-01T16:19:10.351Z,51.17
2022-12-01T16:21:54.107Z,53.13
2022-12-01T16:24:47.287Z,57.28
2022-12-01T16:27:19.687Z,56.38
2022-12-01T16:30:05.131Z,53.45
2022-12-01T16:32:40.368Z,55.92
2022-12-01T16:35:27.430Z,66.38
2022-12-01T16:37:55.322Z,59.83
2022-12-01T16:40:22.709Z,56.70
2022-12-01T16:42:50.022Z,58.67
2022-12-01T16:45:19.015Z,54.53
2022-12-01T16:47:47.848Z,55.55
2022-12-01T16:50:16.895Z,66.78
2022-12-01T16:52:45.665Z,63.13
2022-12-01T16:55:49.898Z,60.75
2022-12-01T16:58:16.695Z,51.25
2022-12-01T17:03:16.113Z,56.42
2022-12-01T17:08:10.621Z,52.80
2022-12-01T17:10:45.058Z,63.47
2022-12-01T17:13:12.756Z,54.25
2022-12-01T17:15:43.997Z,67.57
2022-12-01T17:18:12.305Z,53.58
2022-12-01T17:20:39.563Z,57.50
2022-12-01T17:23:06.428Z,55.90
2022-12-01T17:25:33.632Z,58.03
2022-12-01T17:28:01.229Z,56.10
2022-12-01T17:30:27.961Z,44.78
2022-12-01T17:35:21.454Z,48.40
2022-12-01T17:37:48.023Z,35.72
2022-12-01T17:40:14.881Z,45.47
2022-12-01T17:45:17.503Z,56.78
2022-12-01T17:47:44.721Z,50.28
2022-12-01T17:52:38.198Z,54.80
2022-12-01T17:57:31.611Z,53.13
2022-12-01T17:59:58.312Z,49.75
2022-12-01T18:02:25.377Z,48.30
2022-12-01T18:04:52.349Z,52.28
2022-12-01T18:07:19.323Z,51.55
2022-12-01T18:09:46.115Z,47.05
2022-12-01T18:14:39.392Z,45.63
2022-12-01T18:17:06.093Z,51.42
2022-12-01T18:19:33.094Z,55.03
2022-12-01T18:21:59.720Z,47.88
2022-12-01T18:24:26.355Z,49.83
2022-12-01T18:26:54.585Z,50.70
2022-12-01T18:29:26.557Z,53.15
2022-12-01T18:31:58.140Z,49.85
2022-12-01T18:34:26.570Z,48.85
2022-12-01T18:36:53.372Z,42.85
2022-12-01T18:39:20.071Z,41.42
2022-12-01T18:41:46.931Z,54.33
2022-12-01T18:44:13.935Z,49.33
2022-12-01T18:46:41.074Z,48.88
2022-12-01T18:49:11.721Z,51.67
2022-12-01T18:51:39.140Z,48.45
2022-12-01T18:54:07.687Z,49.67
2022-12-01T18:56:34.751Z,52.15
2022-12-01T18:59:06.775Z,52.95
2022-12-01T19:01:39.936Z,51.08
2022-12-01T19:04:08.675Z,51.13
2022-12-01T19:06:37.211Z,51.08
2022-12-01T19:09:06.591Z,53.47
2022-12-01T19:11:33.647Z,56.60
2022-12-01T19:14:00.362Z,52.67
2022-12-01T19:19:03.523Z,51.13
2022-12-01T19:21:31.909Z,54.53
2022-12-01T19:23:58.535Z,51.08
2022-12-01T19:26:26.109Z,53.10
2022-12-01T19:28:53.223Z,50.60
2022-12-01T19:31:24.755Z,48.00
2022-12-01T19:33:55.240Z,50.63
2022-12-01T19:36:27.299Z,53.22
2022-12-01T19:38:57.504Z,54.38
2022-12-01T19:41:25.687Z,45.67
2022-12-01T19:43:52.942Z,55.70
2022-12-01T19:46:22.488Z,49.25
2022-12-01T19:48:56.271Z,51.33
2022-12-01T19:51:26.247Z,55.88
2022-12-01T19:53:54.227Z,52.03
2022-12-01T19:56:22.611Z,56.72
2022-12-01T19:58:49.680Z,51.10
2022-12-01T20:01:18.393Z,56.20
2022-12-01T20:03:47.727Z,52.88
2022-12-01T20:06:18.820Z,48.00
2022-12-01T20:08:46.257Z,49.33
2022-12-01T20:11:14.526Z,52.22
2022-12-01T20:13:43.235Z,54.42
2022-12-01T20:16:16.138Z,52.60
2022-12-01T20:21:22.751Z,54.70
2022-12-01T20:23:57.739Z,50.72
2022-12-01T20:26:30.381Z,51.15
2022-12-01T20:29:10.117Z,54.40
2022-12-01T20:31:38.045Z,53.75
2022-12-01T20:34:12.209Z,45.83
2022-12-01T20:36:39.165Z,51.58
2022-12-01T20:41:33.258Z,51.65
2022-12-01T20:44:06.738Z,57.17
2022-12-01T20:46:34.737Z,55.63
2022-12-01T20:49:01.647Z,59.85
2022-12-01T20:51:28.411Z,62.08
2022-12-01T20:54:26.067Z,58.33
2022-12-01T20:56:42.135Z,63.30
2022-12-01T20:59:09.368Z,53.85
2022-12-01T21:01:36.537Z,61.33
2022-12-01T21:04:03.406Z,54.58
2022-12-01T21:06:30.742Z,60.72
2022-12-01T21:08:58.103Z,54.83
2022-12-01T21:11:47.408Z,60.17
2022-12-01T21:14:18.595Z,59.05
2022-12-01T21:16:49.418Z,51.53
2022-12-01T21:19:49.969Z,55.50
2022-12-01T21:22:16.703Z,54.45
2022-12-01T21:24:48.712Z,53.15
2022-12-01T21:27:17.063Z,51.22
2022-12-01T21:29:49.058Z,53.97
2022-12-01T21:32:26.795Z,47.08
2022-12-01T21:34:56.163Z,55.53
2022-12-01T21:37:25.396Z,53.05
2022-12-01T21:39:53.311Z,60.17
2022-12-01T21:42:24.914Z,53.50
2022-12-01T21:44:52.001Z,48.97
2022-12-01T21:47:21.674Z,58.15
2022-12-01T21:49:54.336Z,57.45
2022-12-01T21:52:30.136Z,56.75
2022-12-01T21:55:17.310Z,64.35
2022-12-01T21:57:49.838Z,64.30
2022-12-01T22:00:19.654Z,63.85
2022-12-01T22:02:52.363Z,54.47
2022-12-01T22:05:41.881Z,54.40
2022-12-01T22:08:14.539Z,58.50
2022-12-01T22:10:58.575Z,51.40
2022-12-01T22:15:57.400Z,52.85
2022-12-01T22:18:39.271Z,54.42
2022-12-01T22:21:24.665Z,56.83
2022-12-01T22:24:01.126Z,49.78
2022-12-01T22:26:27.976Z,55.40
2022-12-01T22:28:58.149Z,57.20
2022-12-01T22:31:26.422Z,60.35
2022-12-01T22:34:02.828Z,52.47
2022-12-01T22:36:33.347Z,48.17
2022-12-01T22:39:00.975Z,58.00
2022-12-01T22:41:28.780Z,60.80
2022-12-01T22:43:56.895Z,55.40
2022-12-01T22:46:31.649Z,56.50
2022-12-01T22:48:59.754Z,57.03
2022-12-01T22:51:38.125Z,59.75
2022-12-01T22:54:24.758Z,58.05
2022-12-01T22:57:22.799Z,55.70
2022-12-01T22:59:50.350Z,55.75
2022-12-01T23:02:21.516Z,54.80
2022-12-01T23:04:50.214Z,53.42
2022-12-01T23:07:29.205Z,55.95
2022-12-01T23:10:01.209Z,56.25
2022-12-01T23:12:30.754Z,47.95
2022-12-01T23:15:07.070Z,51.75
2022-12-01T23:17:43.422Z,52.72
2022-12-01T23:20:10.357Z,54.78
2022-12-01T23:22:38.490Z,49.67
2022-12-01T23:25:16.814Z,50.90
2022-12-01T23:27:45.091Z,50.33
2022-12-01T23:30:13.097Z,52.80
2022-12-01T23:32:42.452Z,57.20
2022-12-01T23:35:15.644Z,54.35
2022-12-01T23:37:44.790Z,55.00
2022-12-01T23:40:27.726Z,52.53
2022-12-01T23:42:54.807Z,51.22
2022-12-01T23:45:25.147Z,49.97
2022-12-01T23:47:54.486Z,57.00
2022-12-01T23:50:26.517Z,57.97
2022-12-01T23:52:53.986Z,49.50
2022-12-01T23:55:26.030Z,58.35
2022-12-01T23:57:53.118Z,52.75
